John T. Costello — WDI3551 — position and weather

sailwx.info

Track history (hours):
 
Tides and Currents Weather Stations Pressure Air Temp Water Temp Dewpoint Dewpoint Depression Visibility Wind Speed Wind Dir Waves Ship Positions

John T. Costello

Owner: Higman Barge Line, Inc., Orange, TX. More information available from US FCC via Universal Licensing System and Coast Guard Vessel Documentation Center.

Last reported at 2018-Feb-19 15:30 UTC. Time now 2018-Feb-19 15:57 UTC.
Position N 30°06' W 093°20'.

Length 22 m; draft 2.5 m.

Type: Towing. MMSI: 367689490.

Date/timePositionNaut miles runAvg speedWind from/ knotsBaromVisibWave heightAir tempDewpointWater temp
2018-Feb-19 15:30N 30°06' W 093°20'0 0.1
2018-Feb-19 15:00N 30°06' W 093°20'1 1.1
2018-Feb-19 14:26N 30°05' W 093°20'1 1.6
2018-Feb-19 14:00N 30°05' W 093°20'1 2.9
2018-Feb-19 13:30N 30°04' W 093°21'0 0.0
2018-Feb-19 13:00N 30°04' W 093°21'0 0.0
2018-Feb-19 12:30N 30°04' W 093°21'0 0.0
2018-Feb-19 12:00N 30°04' W 093°21'0 0.0
2018-Feb-19 11:30N 30°04' W 093°21'0 0.0
2018-Feb-19 11:00N 30°04' W 093°21'0 0.0
2018-Feb-19 10:30N 30°04' W 093°21'0 0.0
2018-Feb-19 10:00N 30°04' W 093°21'0 0.0
2018-Feb-19 09:28N 30°04' W 093°21'0 0.0
2018-Feb-19 09:00N 30°04' W 093°21'0 0.0
2018-Feb-19 08:30N 30°04' W 093°21'1 1.8
2018-Feb-19 08:00N 30°04' W 093°20'0 0.0
2018-Feb-19 07:30N 30°04' W 093°21'0 0.0
2018-Feb-19 07:00N 30°04' W 093°21'0 0.0
2018-Feb-19 06:30N 30°04' W 093°21'0 0.0
2018-Feb-19 06:00N 30°04' W 093°21'0 0.0
2018-Feb-19 05:30N 30°04' W 093°21'0 0.0
2018-Feb-19 05:00N 30°04' W 093°21'0 0.0
2018-Feb-19 04:30N 30°04' W 093°21'0 0.0
2018-Feb-19 04:00N 30°04' W 093°21'0 0.1
2018-Feb-19 03:30N 30°04' W 093°21'1 1.4
2018-Feb-19 03:00N 30°04' W 093°21'2 3.3
2018-Feb-19 02:30N 30°04' W 093°23'2 3.6
2018-Feb-19 02:00N 30°04' W 093°25'1 1.3
2018-Feb-19 01:30N 30°04' W 093°26'2 4.5
2018-Feb-19 01:00N 30°04' W 093°28'3 6.4
2018-Feb-19 00:30N 30°04' W 093°32'3 6.4
2018-Feb-19 00:00N 30°04' W 093°36'3 6.5
2018-Feb-18 23:30N 30°04' W 093°40'3 6.0
2018-Feb-18 23:00N 30°03' W 093°43'3 5.7
2018-Feb-18 22:30N 30°01' W 093°45'3 5.5
2018-Feb-18 22:00N 29°59' W 093°48'3 6.6
2018-Feb-18 21:30N 29°58' W 093°51'2 4.6
2018-Feb-18 21:00N 29°56' W 093°52'3 6.9
2018-Feb-18 20:30N 29°53' W 093°55'3 5.4
2018-Feb-18 20:00N 29°51' W 093°57'2 4.9
2018-Feb-18 19:30N 29°49' W 093°58'3 5.1
2018-Feb-18 19:00N 29°48' W 094°01'3 6.3
2018-Feb-18 18:31N 29°46' W 094°03'3 6.4
2018-Feb-18 18:00N 29°44' W 094°06'3 6.2
2018-Feb-18 17:31N 29°42' W 094°09'3 5.4
2018-Feb-18 17:00N 29°41' W 094°12'1 2.5
2018-Feb-18 16:30N 29°40' W 094°13'0 0.0
2018-Feb-18 16:00N 29°40' W 094°13'0 0.0
2018-Feb-18 15:31N 29°40' W 094°13'0 0.1
2018-Feb-18 15:00N 29°40' W 094°13'0 0.0
2018-Feb-18 14:30N 29°40' W 094°13'0 0.0
2018-Feb-18 14:00N 29°40' W 094°13'0 0.0
2018-Feb-18 13:30N 29°40' W 094°13'0 0.0
2018-Feb-18 12:59N 29°40' W 094°13'0 0.0
2018-Feb-18 12:31N 29°40' W 094°13'0 0.0
2018-Feb-18 12:01N 29°40' W 094°13'0 0.0
2018-Feb-18 11:30N 29°40' W 094°13'0 0.0
2018-Feb-18 11:00N 29°40' W 094°13'0 0.0
2018-Feb-18 10:30N 29°40' W 094°13'0 0.0
2018-Feb-18 10:00N 29°40' W 094°13'0 0.0
2018-Feb-18 09:30N 29°40' W 094°13'0 0.0
2018-Feb-18 09:00N 29°40' W 094°13'0 0.0
2018-Feb-18 08:27N 29°40' W 094°13'0 0.0
2018-Feb-18 08:00N 29°40' W 094°13'0 0.0
2018-Feb-18 07:30N 29°40' W 094°13'0 0.0
2018-Feb-18 07:00N 29°40' W 094°13'2 3.2
2018-Feb-18 06:30N 29°39' W 094°15'3 5.3
2018-Feb-18 06:00N 29°38' W 094°18'1 2.8
2018-Feb-18 05:30N 29°38' W 094°19'5 4.9
2018-Feb-18 04:35N 29°36' W 094°24'2 1.9
2018-Feb-18 03:23N 29°34' W 094°25'0 0.0
2018-Feb-18 02:59N 29°34' W 094°25'0 0.0
2018-Feb-18 02:30N 29°34' W 094°25'0 0.0
2018-Feb-18 02:00N 29°34' W 094°25'0 0.0
2018-Feb-18 01:30N 29°34' W 094°25'0 0.0
2018-Feb-18 01:00N 29°34' W 094°25'0 0.1
2018-Feb-18 00:30N 29°34' W 094°25'3 5.8
2018-Feb-18 00:00N 29°33' W 094°28'3 5.7
2018-Feb-17 23:29N 29°31' W 094°31'0 0.7
2018-Feb-17 22:47N 29°31' W 094°32'0 0.1
2018-Feb-17 22:21N 29°31' W 094°32'0 0.1
2018-Feb-17 21:57N 29°31' W 094°32'2 4.3
2018-Feb-17 21:27N 29°30' W 094°34'2 4.0
2018-Feb-17 20:57N 29°29' W 094°36'23 1.9
2018-Feb-17 08:45N 29°17' W 094°59'0 0.0
2018-Feb-17 08:11N 29°17' W 094°59'0 0.0
2018-Feb-17 07:59N 29°17' W 094°59'0 0.0
2018-Feb-17 07:28N 29°17' W 094°59'0 0.0
2018-Feb-17 06:58N 29°17' W 094°59'0 0.0
2018-Feb-17 06:26N 29°17' W 094°59'0 0.0
2018-Feb-17 06:00N 29°17' W 094°59'0 0.0
2018-Feb-17 05:19N 29°17' W 094°59'0 0.0
2018-Feb-17 04:57N 29°17' W 094°59'0 0.0
2018-Feb-17 04:14N 29°17' W 094°59'0 0.0
2018-Feb-17 03:56N 29°17' W 094°59'0 0.0
2018-Feb-17 03:09N 29°17' W 094°59'0 0.0
2018-Feb-17 03:00N 29°17' W 094°59'0 0.0
2018-Feb-17 02:24N 29°17' W 094°59'0 0.0
2018-Feb-17 01:58N 29°17' W 094°59'1 2.3
2018-Feb-17 01:30N 29°17' W 094°58'2 4.2
2018-Feb-17 01:00N 29°17' W 094°55'2 4.3
2018-Feb-17 00:29N 29°18' W 094°53'3 5.1
2018-Feb-16 23:54N 29°20' W 094°50'1 3.7
2018-Feb-16 23:30N 29°21' W 094°49'0 0.0
2018-Feb-16 22:59N 29°21' W 094°49'1 2.5
2018-Feb-16 22:29N 29°22' W 094°48'2 3.8
2018-Feb-16 21:59N 29°24' W 094°49'2 3.7
2018-Feb-16 21:30N 29°26' W 094°50'2 3.4
2018-Feb-16 21:00N 29°27' W 094°51'4 8.2
2018-Feb-16 20:30N 29°31' W 094°53'4 7.9
2018-Feb-16 20:00N 29°34' W 094°55'4 8.0
2018-Feb-16 19:30N 29°38' W 094°58'4 8.2
2018-Feb-16 19:00N 29°42' W 094°59'3 6.6
2018-Feb-16 18:30N 29°44' W 095°02'3 6.4
2018-Feb-16 18:00N 29°46' W 095°05'1 1.1
2018-Feb-16 17:30N 29°47' W 095°05'0 0.1
2018-Feb-16 17:00N 29°47' W 095°05'0 0.1
2018-Feb-16 16:30N 29°47' W 095°05'0 0.2
2018-Feb-16 16:00N 29°46' W 095°05'1 2.4
2018-Feb-16 15:30N 29°47' W 095°06'0 0.8
2018-Feb-16 14:59N 29°46' W 095°06'1 2.6
2018-Feb-16 14:30N 29°47' W 095°05'0 0.0
2018-Feb-16 14:00N 29°47' W 095°05'0 0.0
2018-Feb-16 13:30N 29°47' W 095°05'0 0.0
2018-Feb-16 12:01N 29°47' W 095°05'0 0.0
2018-Feb-16 11:37N 29°47' W 095°05'0 0.0
2018-Feb-16 10:43N 29°47' W 095°05'0 0.0
2018-Feb-16 08:18N 29°47' W 095°05'0 0.0
2018-Feb-16 07:48N 29°47' W 095°05'0 0.0
2018-Feb-16 07:30N 29°47' W 095°05'0 0.0
2018-Feb-16 06:58N 29°47' W 095°05'0 0.0
2018-Feb-16 06:26N 29°47' W 095°05'0 0.0
2018-Feb-16 06:00N 29°47' W 095°05'0 0.0
2018-Feb-16 05:30N 29°47' W 095°05'0 0.0
2018-Feb-16 04:58N 29°47' W 095°05'0 0.0
2018-Feb-16 04:22N 29°47' W 095°05'0 0.0
2018-Feb-16 04:00N 29°47' W 095°05'0 0.0
2018-Feb-16 03:26N 29°47' W 095°05'0 0.0
2018-Feb-16 02:58N 29°47' W 095°05'0 0.0
2018-Feb-16 02:22N 29°47' W 095°05'0 0.0
2018-Feb-16 02:00N 29°47' W 095°05'0 0.0
2018-Feb-16 01:28N 29°47' W 095°05'0 0.0
2018-Feb-16 01:00N 29°47' W 095°05'2 0.4
2018-Feb-15 19:36N 29°45' W 095°06'0 0.1
2018-Feb-15 16:33N 29°45' W 095°07'0 0.1
2018-Feb-15 16:29N 29°45' W 095°07'0 0.0
2018-Feb-15 15:47N 29°45' W 095°07'1 3.8
2018-Feb-15 15:25N 29°46' W 095°05'0 0.1
2018-Feb-15 10:58N 29°45' W 095°06'0 0.5
2018-Feb-15 10:19N 29°46' W 095°05'2 5.5
2018-Feb-15 09:58N 29°44' W 095°07'5 7.7
2018-Feb-15 09:23N 29°44' W 095°12'0 0.7
2018-Feb-15 08:55N 29°44' W 095°12'0 0.0
2018-Feb-15 08:30N 29°44' W 095°12'0 0.0
2018-Feb-15 07:58N 29°44' W 095°12'0 0.0
2018-Feb-15 07:29N 29°44' W 095°12'0 0.0
2018-Feb-15 06:59N 29°44' W 095°12'0 0.1
2018-Feb-15 06:07N 29°44' W 095°12'0 0.0
2018-Feb-15 05:56N 29°44' W 095°12'0 0.0
2018-Feb-15 05:30N 29°44' W 095°12'0 0.0
2018-Feb-15 04:59N 29°44' W 095°12'0 0.0
2018-Feb-15 04:30N 29°44' W 095°12'0 0.0
2018-Feb-15 03:57N 29°44' W 095°12'0 0.0
2018-Feb-15 03:25N 29°44' W 095°12'0 0.0
2018-Feb-15 01:06N 29°44' W 095°12'0 0.0
2018-Feb-14 23:19N 29°44' W 095°12'0 0.1
2018-Feb-14 18:32N 29°44' W 095°12'0 2.7
2018-Feb-14 18:30N 29°44' W 095°12'3 6.4
2018-Feb-14 18:00N 29°44' W 095°08'4 7.5
2018-Feb-14 17:28N 29°46' W 095°05'1 2.0
2018-Feb-14 16:52N 29°47' W 095°06'0 0.0
2018-Feb-14 16:24N 29°47' W 095°06'0 1.0
2018-Feb-14 16:00N 29°47' W 095°06'2 3.7
2018-Feb-14 15:22N 29°44' W 095°07'4 7.9
2018-Feb-14 14:53N 29°45' W 095°11'41 0.9
2018-Feb-12 19:31N 29°35' W 094°25'1 4.1
2018-Feb-12 19:18N 29°36' W 094°24'1 4.2
2018-Feb-12 18:58N 29°36' W 094°23'2 3.6
2018-Feb-12 18:28N 29°37' W 094°21'2 4.8
2018-Feb-12 18:00N 29°38' W 094°19'3 5.4
2018-Feb-12 17:30N 29°39' W 094°16'3 5.5
2018-Feb-12 17:00N 29°40' W 094°13'3 5.1
2018-Feb-12 16:30N 29°41' W 094°10'2 4.9
2018-Feb-12 16:00N 29°43' W 094°08'2 5.0
2018-Feb-12 15:30N 29°44' W 094°06'3 5.0
2018-Feb-12 15:00N 29°46' W 094°03'2 4.6
2018-Feb-12 14:30N 29°47' W 094°01'2 4.6
2018-Feb-12 14:00N 29°49' W 093°59'2 4.3
2018-Feb-12 13:30N 29°50' W 093°57'4 7.5
2018-Feb-12 13:00N 29°53' W 093°55'4 7.5
2018-Feb-12 12:30N 29°56' W 093°52'3 5.5
2018-Feb-12 12:00N 29°58' W 093°51'3 5.5
2018-Feb-12 11:30N 29°59' W 093°48'3 6.4
2018-Feb-12 11:00N 30°01' W 093°45'3 5.5
2018-Feb-12 10:29N 30°03' W 093°43'2 4.6
2018-Feb-12 10:00N 30°04' W 093°40'3 5.7
2018-Feb-12 09:26N 30°04' W 093°36'2 5.0
2018-Feb-12 09:00N 30°04' W 093°34'3 5.0
2018-Feb-12 08:29N 30°04' W 093°31'2 5.1
2018-Feb-12 08:00N 30°04' W 093°28'3 5.0
2018-Feb-12 07:28N 30°04' W 093°25'2 4.8
2018-Feb-12 06:58N 30°04' W 093°22'2 3.3
2018-Feb-12 06:30N 30°04' W 093°21'2 3.0
2018-Feb-12 05:55N 30°06' W 093°19'0 0.1
2018-Feb-12 05:30N 30°06' W 093°19'0 0.3
2018-Feb-12 05:00N 30°06' W 093°19'2 4.2
2018-Feb-12 04:28N 30°08' W 093°20'1 1.0
2018-Feb-12 03:57N 30°08' W 093°19'0 0.0
2018-Feb-12 03:28N 30°08' W 093°19'0 0.0
2018-Feb-12 02:58N 30°08' W 093°19'0 0.0
2018-Feb-12 02:27N 30°08' W 093°19'0 0.0
2018-Feb-12 01:57N 30°08' W 093°19'0 0.0
2018-Feb-12 01:28N 30°08' W 093°19'0 0.0
2018-Feb-12 01:00N 30°08' W 093°19'0 0.0
2018-Feb-12 00:30N 30°08' W 093°19'0 0.0
2018-Feb-12 00:00N 30°08' W 093°19'0 0.0
2018-Feb-11 23:29N 30°08' W 093°19'0 0.0
2018-Feb-11 23:00N 30°08' W 093°19'0 0.0
2018-Feb-11 22:30N 30°08' W 093°19'0 0.0
2018-Feb-11 22:00N 30°08' W 093°19'0 0.0
2018-Feb-11 21:28N 30°08' W 093°19'0 0.0
2018-Feb-11 20:54N 30°08' W 093°19'0 0.0
2018-Feb-11 20:28N 30°08' W 093°19'0 0.0
2018-Feb-11 19:57N 30°08' W 093°19'0 0.0
2018-Feb-11 19:28N 30°08' W 093°19'0 0.0
2018-Feb-11 19:00N 30°08' W 093°19'0 0.0
2018-Feb-11 18:30N 30°08' W 093°19'0 0.0
2018-Feb-11 17:59N 30°08' W 093°19'0 0.0
2018-Feb-11 17:30N 30°08' W 093°19'0 0.0
2018-Feb-11 17:00N 30°08' W 093°19'0 0.0
2018-Feb-11 16:28N 30°08' W 093°19'0 0.1
2018-Feb-11 16:00N 30°08' W 093°19'3 6.0
2018-Feb-11 15:30N 30°05' W 093°20'1 2.3
2018-Feb-11 15:00N 30°04' W 093°21'1 1.6
2018-Feb-11 14:30N 30°05' W 093°20'0 0.8
2018-Feb-11 14:00N 30°05' W 093°20'3 5.2
2018-Feb-11 13:30N 30°08' W 093°20'1 1.0
2018-Feb-11 13:00N 30°08' W 093°19'0 0.0
2018-Feb-11 12:30N 30°08' W 093°19'0 0.0
2018-Feb-11 12:00N 30°08' W 093°19'0 0.0
2018-Feb-11 11:30N 30°08' W 093°19'0 0.0
2018-Feb-11 11:00N 30°08' W 093°19'0 0.0
2018-Feb-11 10:30N 30°08' W 093°19'0 0.0
2018-Feb-11 10:00N 30°08' W 093°19'0 0.0
2018-Feb-11 09:30N 30°08' W 093°19'0 0.0
2018-Feb-11 09:00N 30°08' W 093°19'0 0.0
2018-Feb-11 08:30N 30°08' W 093°19'0 0.0
2018-Feb-11 08:00N 30°08' W 093°19'0 0.0
2018-Feb-11 07:30N 30°08' W 093°19'0 0.0
2018-Feb-11 07:00N 30°08' W 093°19'0 0.0
2018-Feb-11 06:30N 30°08' W 093°19'0 0.0
2018-Feb-11 06:00N 30°08' W 093°19'0 0.0
2018-Feb-11 05:30N 30°08' W 093°19'0 0.0
2018-Feb-11 05:00N 30°08' W 093°19'0 0.0
2018-Feb-11 04:30N 30°08' W 093°19'0 0.0
2018-Feb-11 04:00N 30°08' W 093°19'0 0.0
2018-Feb-11 03:30N 30°08' W 093°19'0 0.0
2018-Feb-11 03:00N 30°08' W 093°19'0 0.0
2018-Feb-11 02:30N 30°08' W 093°19'0 0.0
2018-Feb-11 02:00N 30°08' W 093°19'0 0.0
2018-Feb-11 01:30N 30°08' W 093°19'0 0.0
2018-Feb-11 01:00N 30°08' W 093°19'0 0.0
2018-Feb-11 00:30N 30°08' W 093°19'0 0.0
2018-Feb-11 00:00N 30°08' W 093°19'0 0.0
2018-Feb-10 23:30N 30°08' W 093°19'0 0.0
2018-Feb-10 23:00N 30°08' W 093°19'0 0.0
2018-Feb-10 22:30N 30°08' W 093°19'0 0.0
2018-Feb-10 22:00N 30°08' W 093°19'0 0.0
2018-Feb-10 21:30N 30°08' W 093°19'0 0.0
2018-Feb-10 21:00N 30°08' W 093°19'0 0.0
2018-Feb-10 20:30N 30°08' W 093°19'0 0.0
2018-Feb-10 20:00N 30°08' W 093°19'0 0.0
2018-Feb-10 19:30N 30°08' W 093°19'0 0.0
2018-Feb-10 19:00N 30°08' W 093°19'0 0.0
2018-Feb-10 18:30N 30°08' W 093°19'0 0.0
2018-Feb-10 18:00N 30°08' W 093°19'0 0.0
2018-Feb-10 17:30N 30°08' W 093°19'0 0.0
2018-Feb-10 17:00N 30°08' W 093°19'0 0.0
2018-Feb-10 16:30N 30°08' W 093°19'0 0.7
2018-Feb-10 16:00N 30°08' W 093°20'2 4.6
2018-Feb-10 15:30N 30°06' W 093°20'2 3.0
2018-Feb-10 15:00N 30°04' W 093°20'0 0.1
2018-Feb-10 14:30N 30°04' W 093°21'0 0.0
2018-Feb-10 14:00N 30°04' W 093°21'0 0.0
2018-Feb-10 13:28N 30°04' W 093°21'0 0.0
2018-Feb-10 13:00N 30°04' W 093°21'0 0.0
2018-Feb-10 12:30N 30°04' W 093°21'0 0.0
2018-Feb-10 12:00N 30°04' W 093°21'0 0.0
2018-Feb-10 11:25N 30°04' W 093°21'0 0.0
2018-Feb-10 11:00N 30°04' W 093°21'0 0.0
2018-Feb-10 10:30N 30°04' W 093°21'0 0.0
2018-Feb-10 10:00N 30°04' W 093°21'0 0.0
2018-Feb-10 09:30N 30°04' W 093°21'0 0.0
2018-Feb-10 09:00N 30°04' W 093°21'0 0.0
2018-Feb-10 08:30N 30°04' W 093°21'0 0.0
2018-Feb-10 08:00N 30°04' W 093°21'0 0.0
2018-Feb-10 07:29N 30°04' W 093°21'0 0.0
2018-Feb-10 07:00N 30°04' W 093°21'0 0.0
2018-Feb-10 06:29N 30°04' W 093°21'0 0.0
2018-Feb-10 06:00N 30°04' W 093°21'0 0.0
2018-Feb-10 05:30N 30°04' W 093°21'0 0.0
2018-Feb-10 05:00N 30°04' W 093°21'0 0.3
2018-Feb-10 04:30N 30°04' W 093°21'1 1.4
2018-Feb-10 04:00N 30°04' W 093°21'0 0.0
2018-Feb-10 03:30N 30°04' W 093°21'0 0.0
2018-Feb-10 03:00N 30°04' W 093°21'0 0.0
2018-Feb-10 02:30N 30°04' W 093°21'0 0.0
2018-Feb-10 02:00N 30°04' W 093°21'1 1.7
2018-Feb-10 01:30N 30°04' W 093°21'0 0.0
2018-Feb-10 01:00N 30°04' W 093°21'  
Track history (hours):
 
Tides and Currents Weather Stations Pressure Air Temp Water Temp Dewpoint Dewpoint Depression Visibility Wind Speed Wind Dir Waves Ship Positions

John T. Costello

Owner: Higman Barge Line, Inc., Orange, TX. More information available from US FCC via Universal Licensing System and Coast Guard Vessel Documentation Center.

Last reported at 2018-Feb-19 15:30 UTC. Time now 2018-Feb-19 15:57 UTC.
Position N 30°06' W 093°20'.

Length 22 m; draft 2.5 m.

Type: Towing. MMSI: 367689490.

Date/timePositionNaut miles runAvg speedWind from/ knotsBaromVisibWave heightAir tempDewpointWater temp
2018-Feb-19 15:30N 30°06' W 093°20'0 0.1
2018-Feb-19 15:00N 30°06' W 093°20'1 1.1
2018-Feb-19 14:26N 30°05' W 093°20'1 1.6
2018-Feb-19 14:00N 30°05' W 093°20'1 2.9
2018-Feb-19 13:30N 30°04' W 093°21'0 0.0
2018-Feb-19 13:00N 30°04' W 093°21'0 0.0
2018-Feb-19 12:30N 30°04' W 093°21'0 0.0
2018-Feb-19 12:00N 30°04' W 093°21'0 0.0
2018-Feb-19 11:30N 30°04' W 093°21'0 0.0
2018-Feb-19 11:00N 30°04' W 093°21'0 0.0
2018-Feb-19 10:30N 30°04' W 093°21'0 0.0
2018-Feb-19 10:00N 30°04' W 093°21'0 0.0
2018-Feb-19 09:28N 30°04' W 093°21'0 0.0
2018-Feb-19 09:00N 30°04' W 093°21'0 0.0
2018-Feb-19 08:30N 30°04' W 093°21'1 1.8
2018-Feb-19 08:00N 30°04' W 093°20'0 0.0
2018-Feb-19 07:30N 30°04' W 093°21'0 0.0
2018-Feb-19 07:00N 30°04' W 093°21'0 0.0
2018-Feb-19 06:30N 30°04' W 093°21'0 0.0
2018-Feb-19 06:00N 30°04' W 093°21'0 0.0
2018-Feb-19 05:30N 30°04' W 093°21'0 0.0
2018-Feb-19 05:00N 30°04' W 093°21'0 0.0
2018-Feb-19 04:30N 30°04' W 093°21'0 0.0
2018-Feb-19 04:00N 30°04' W 093°21'0 0.1
2018-Feb-19 03:30N 30°04' W 093°21'1 1.4
2018-Feb-19 03:00N 30°04' W 093°21'2 3.3
2018-Feb-19 02:30N 30°04' W 093°23'2 3.6
2018-Feb-19 02:00N 30°04' W 093°25'1 1.3
2018-Feb-19 01:30N 30°04' W 093°26'2 4.5
2018-Feb-19 01:00N 30°04' W 093°28'3 6.4
2018-Feb-19 00:30N 30°04' W 093°32'3 6.4
2018-Feb-19 00:00N 30°04' W 093°36'3 6.5
2018-Feb-18 23:30N 30°04' W 093°40'3 6.0
2018-Feb-18 23:00N 30°03' W 093°43'3 5.7
2018-Feb-18 22:30N 30°01' W 093°45'3 5.5
2018-Feb-18 22:00N 29°59' W 093°48'3 6.6
2018-Feb-18 21:30N 29°58' W 093°51'2 4.6
2018-Feb-18 21:00N 29°56' W 093°52'3 6.9
2018-Feb-18 20:30N 29°53' W 093°55'3 5.4
2018-Feb-18 20:00N 29°51' W 093°57'2 4.9
2018-Feb-18 19:30N 29°49' W 093°58'3 5.1
2018-Feb-18 19:00N 29°48' W 094°01'3 6.3
2018-Feb-18 18:31N 29°46' W 094°03'3 6.4
2018-Feb-18 18:00N 29°44' W 094°06'3 6.2
2018-Feb-18 17:31N 29°42' W 094°09'3 5.4
2018-Feb-18 17:00N 29°41' W 094°12'1 2.5
2018-Feb-18 16:30N 29°40' W 094°13'0 0.0
2018-Feb-18 16:00N 29°40' W 094°13'0 0.0
2018-Feb-18 15:31N 29°40' W 094°13'0 0.1
2018-Feb-18 15:00N 29°40' W 094°13'0 0.0
2018-Feb-18 14:30N 29°40' W 094°13'0 0.0
2018-Feb-18 14:00N 29°40' W 094°13'0 0.0
2018-Feb-18 13:30N 29°40' W 094°13'0 0.0
2018-Feb-18 12:59N 29°40' W 094°13'0 0.0
2018-Feb-18 12:31N 29°40' W 094°13'0 0.0
2018-Feb-18 12:01N 29°40' W 094°13'0 0.0
2018-Feb-18 11:30N 29°40' W 094°13'0 0.0
2018-Feb-18 11:00N 29°40' W 094°13'0 0.0
2018-Feb-18 10:30N 29°40' W 094°13'0 0.0
2018-Feb-18 10:00N 29°40' W 094°13'0 0.0
2018-Feb-18 09:30N 29°40' W 094°13'0 0.0
2018-Feb-18 09:00N 29°40' W 094°13'0 0.0
2018-Feb-18 08:27N 29°40' W 094°13'0 0.0
2018-Feb-18 08:00N 29°40' W 094°13'0 0.0
2018-Feb-18 07:30N 29°40' W 094°13'0 0.0
2018-Feb-18 07:00N 29°40' W 094°13'2 3.2
2018-Feb-18 06:30N 29°39' W 094°15'3 5.3
2018-Feb-18 06:00N 29°38' W 094°18'1 2.8
2018-Feb-18 05:30N 29°38' W 094°19'5 4.9
2018-Feb-18 04:35N 29°36' W 094°24'2 1.9
2018-Feb-18 03:23N 29°34' W 094°25'0 0.0
2018-Feb-18 02:59N 29°34' W 094°25'0 0.0
2018-Feb-18 02:30N 29°34' W 094°25'0 0.0
2018-Feb-18 02:00N 29°34' W 094°25'0 0.0
2018-Feb-18 01:30N 29°34' W 094°25'0 0.0
2018-Feb-18 01:00N 29°34' W 094°25'0 0.1
2018-Feb-18 00:30N 29°34' W 094°25'3 5.8
2018-Feb-18 00:00N 29°33' W 094°28'3 5.7
2018-Feb-17 23:29N 29°31' W 094°31'0 0.7
2018-Feb-17 22:47N 29°31' W 094°32'0 0.1
2018-Feb-17 22:21N 29°31' W 094°32'0 0.1
2018-Feb-17 21:57N 29°31' W 094°32'2 4.3
2018-Feb-17 21:27N 29°30' W 094°34'2 4.0
2018-Feb-17 20:57N 29°29' W 094°36'23 1.9
2018-Feb-17 08:45N 29°17' W 094°59'0 0.0
2018-Feb-17 08:11N 29°17' W 094°59'0 0.0
2018-Feb-17 07:59N 29°17' W 094°59'0 0.0
2018-Feb-17 07:28N 29°17' W 094°59'0 0.0
2018-Feb-17 06:58N 29°17' W 094°59'0 0.0
2018-Feb-17 06:26N 29°17' W 094°59'0 0.0
2018-Feb-17 06:00N 29°17' W 094°59'0 0.0
2018-Feb-17 05:19N 29°17' W 094°59'0 0.0
2018-Feb-17 04:57N 29°17' W 094°59'0 0.0
2018-Feb-17 04:14N 29°17' W 094°59'0 0.0
2018-Feb-17 03:56N 29°17' W 094°59'0 0.0
2018-Feb-17 03:09N 29°17' W 094°59'0 0.0
2018-Feb-17 03:00N 29°17' W 094°59'0 0.0
2018-Feb-17 02:24N 29°17' W 094°59'0 0.0
2018-Feb-17 01:58N 29°17' W 094°59'1 2.3
2018-Feb-17 01:30N 29°17' W 094°58'2 4.2
2018-Feb-17 01:00N 29°17' W 094°55'2 4.3
2018-Feb-17 00:29N 29°18' W 094°53'3 5.1
2018-Feb-16 23:54N 29°20' W 094°50'1 3.7
2018-Feb-16 23:30N 29°21' W 094°49'0 0.0
2018-Feb-16 22:59N 29°21' W 094°49'1 2.5
2018-Feb-16 22:29N 29°22' W 094°48'2 3.8
2018-Feb-16 21:59N 29°24' W 094°49'2 3.7
2018-Feb-16 21:30N 29°26' W 094°50'2 3.4
2018-Feb-16 21:00N 29°27' W 094°51'4 8.2
2018-Feb-16 20:30N 29°31' W 094°53'4 7.9
2018-Feb-16 20:00N 29°34' W 094°55'4 8.0
2018-Feb-16 19:30N 29°38' W 094°58'4 8.2
2018-Feb-16 19:00N 29°42' W 094°59'3 6.6
2018-Feb-16 18:30N 29°44' W 095°02'3 6.4
2018-Feb-16 18:00N 29°46' W 095°05'1 1.1
2018-Feb-16 17:30N 29°47' W 095°05'0 0.1
2018-Feb-16 17:00N 29°47' W 095°05'0 0.1
2018-Feb-16 16:30N 29°47' W 095°05'0 0.2
2018-Feb-16 16:00N 29°46' W 095°05'1 2.4
2018-Feb-16 15:30N 29°47' W 095°06'0 0.8
2018-Feb-16 14:59N 29°46' W 095°06'1 2.6
2018-Feb-16 14:30N 29°47' W 095°05'0 0.0
2018-Feb-16 14:00N 29°47' W 095°05'0 0.0
2018-Feb-16 13:30N 29°47' W 095°05'0 0.0
2018-Feb-16 12:01N 29°47' W 095°05'0 0.0
2018-Feb-16 11:37N 29°47' W 095°05'0 0.0
2018-Feb-16 10:43N 29°47' W 095°05'0 0.0
2018-Feb-16 08:18N 29°47' W 095°05'0 0.0
2018-Feb-16 07:48N 29°47' W 095°05'0 0.0
2018-Feb-16 07:30N 29°47' W 095°05'0 0.0
2018-Feb-16 06:58N 29°47' W 095°05'0 0.0
2018-Feb-16 06:26N 29°47' W 095°05'0 0.0
2018-Feb-16 06:00N 29°47' W 095°05'0 0.0
2018-Feb-16 05:30N 29°47' W 095°05'0 0.0
2018-Feb-16 04:58N 29°47' W 095°05'0 0.0
2018-Feb-16 04:22N 29°47' W 095°05'0 0.0
2018-Feb-16 04:00N 29°47' W 095°05'0 0.0
2018-Feb-16 03:26N 29°47' W 095°05'0 0.0
2018-Feb-16 02:58N 29°47' W 095°05'0 0.0
2018-Feb-16 02:22N 29°47' W 095°05'0 0.0
2018-Feb-16 02:00N 29°47' W 095°05'0 0.0
2018-Feb-16 01:28N 29°47' W 095°05'0 0.0
2018-Feb-16 01:00N 29°47' W 095°05'2 0.4
2018-Feb-15 19:36N 29°45' W 095°06'0 0.1
2018-Feb-15 16:33N 29°45' W 095°07'0 0.1
2018-Feb-15 16:29N 29°45' W 095°07'0 0.0
2018-Feb-15 15:47N 29°45' W 095°07'1 3.8
2018-Feb-15 15:25N 29°46' W 095°05'0 0.1
2018-Feb-15 10:58N 29°45' W 095°06'0 0.5
2018-Feb-15 10:19N 29°46' W 095°05'2 5.5
2018-Feb-15 09:58N 29°44' W 095°07'5 7.7
2018-Feb-15 09:23N 29°44' W 095°12'0 0.7
2018-Feb-15 08:55N 29°44' W 095°12'0 0.0
2018-Feb-15 08:30N 29°44' W 095°12'0 0.0
2018-Feb-15 07:58N 29°44' W 095°12'0 0.0
2018-Feb-15 07:29N 29°44' W 095°12'0 0.0
2018-Feb-15 06:59N 29°44' W 095°12'0 0.1
2018-Feb-15 06:07N 29°44' W 095°12'0 0.0
2018-Feb-15 05:56N 29°44' W 095°12'0 0.0
2018-Feb-15 05:30N 29°44' W 095°12'0 0.0
2018-Feb-15 04:59N 29°44' W 095°12'0 0.0
2018-Feb-15 04:30N 29°44' W 095°12'0 0.0
2018-Feb-15 03:57N 29°44' W 095°12'0 0.0
2018-Feb-15 03:25N 29°44' W 095°12'0 0.0
2018-Feb-15 01:06N 29°44' W 095°12'0 0.0
2018-Feb-14 23:19N 29°44' W 095°12'0 0.1
2018-Feb-14 18:32N 29°44' W 095°12'0 2.7
2018-Feb-14 18:30N 29°44' W 095°12'3 6.4
2018-Feb-14 18:00N 29°44' W 095°08'4 7.5
2018-Feb-14 17:28N 29°46' W 095°05'1 2.0
2018-Feb-14 16:52N 29°47' W 095°06'0 0.0
2018-Feb-14 16:24N 29°47' W 095°06'0 1.0
2018-Feb-14 16:00N 29°47' W 095°06'2 3.7
2018-Feb-14 15:22N 29°44' W 095°07'4 7.9
2018-Feb-14 14:53N 29°45' W 095°11'41 0.9
2018-Feb-12 19:31N 29°35' W 094°25'1 4.1
2018-Feb-12 19:18N 29°36' W 094°24'1 4.2
2018-Feb-12 18:58N 29°36' W 094°23'2 3.6
2018-Feb-12 18:28N 29°37' W 094°21'2 4.8
2018-Feb-12 18:00N 29°38' W 094°19'3 5.4
2018-Feb-12 17:30N 29°39' W 094°16'3 5.5
2018-Feb-12 17:00N 29°40' W 094°13'3 5.1
2018-Feb-12 16:30N 29°41' W 094°10'2 4.9
2018-Feb-12 16:00N 29°43' W 094°08'2 5.0
2018-Feb-12 15:30N 29°44' W 094°06'3 5.0
2018-Feb-12 15:00N 29°46' W 094°03'2 4.6
2018-Feb-12 14:30N 29°47' W 094°01'2 4.6
2018-Feb-12 14:00N 29°49' W 093°59'2 4.3
2018-Feb-12 13:30N 29°50' W 093°57'4 7.5
2018-Feb-12 13:00N 29°53' W 093°55'4 7.5
2018-Feb-12 12:30N 29°56' W 093°52'3 5.5
2018-Feb-12 12:00N 29°58' W 093°51'3 5.5
2018-Feb-12 11:30N 29°59' W 093°48'3 6.4
2018-Feb-12 11:00N 30°01' W 093°45'3 5.5
2018-Feb-12 10:29N 30°03' W 093°43'2 4.6
2018-Feb-12 10:00N 30°04' W 093°40'3 5.7
2018-Feb-12 09:26N 30°04' W 093°36'2 5.0
2018-Feb-12 09:00N 30°04' W 093°34'3 5.0
2018-Feb-12 08:29N 30°04' W 093°31'2 5.1
2018-Feb-12 08:00N 30°04' W 093°28'3 5.0
2018-Feb-12 07:28N 30°04' W 093°25'2 4.8
2018-Feb-12 06:58N 30°04' W 093°22'2 3.3
2018-Feb-12 06:30N 30°04' W 093°21'2 3.0
2018-Feb-12 05:55N 30°06' W 093°19'0 0.1
2018-Feb-12 05:30N 30°06' W 093°19'0 0.3
2018-Feb-12 05:00N 30°06' W 093°19'2 4.2
2018-Feb-12 04:28N 30°08' W 093°20'1 1.0
2018-Feb-12 03:57N 30°08' W 093°19'0 0.0
2018-Feb-12 03:28N 30°08' W 093°19'0 0.0
2018-Feb-12 02:58N 30°08' W 093°19'0 0.0
2018-Feb-12 02:27N 30°08' W 093°19'0 0.0
2018-Feb-12 01:57N 30°08' W 093°19'0 0.0
2018-Feb-12 01:28N 30°08' W 093°19'0 0.0
2018-Feb-12 01:00N 30°08' W 093°19'0 0.0
2018-Feb-12 00:30N 30°08' W 093°19'0 0.0
2018-Feb-12 00:00N 30°08' W 093°19'0 0.0
2018-Feb-11 23:29N 30°08' W 093°19'0 0.0
2018-Feb-11 23:00N 30°08' W 093°19'0 0.0
2018-Feb-11 22:30N 30°08' W 093°19'0 0.0
2018-Feb-11 22:00N 30°08' W 093°19'0 0.0
2018-Feb-11 21:28N 30°08' W 093°19'0 0.0
2018-Feb-11 20:54N 30°08' W 093°19'0 0.0
2018-Feb-11 20:28N 30°08' W 093°19'0 0.0
2018-Feb-11 19:57N 30°08' W 093°19'0 0.0
2018-Feb-11 19:28N 30°08' W 093°19'0 0.0
2018-Feb-11 19:00N 30°08' W 093°19'0 0.0
2018-Feb-11 18:30N 30°08' W 093°19'0 0.0
2018-Feb-11 17:59N 30°08' W 093°19'0 0.0
2018-Feb-11 17:30N 30°08' W 093°19'0 0.0
2018-Feb-11 17:00N 30°08' W 093°19'0 0.0
2018-Feb-11 16:28N 30°08' W 093°19'0 0.1
2018-Feb-11 16:00N 30°08' W 093°19'3 6.0
2018-Feb-11 15:30N 30°05' W 093°20'1 2.3
2018-Feb-11 15:00N 30°04' W 093°21'1 1.6
2018-Feb-11 14:30N 30°05' W 093°20'0 0.8
2018-Feb-11 14:00N 30°05' W 093°20'3 5.2
2018-Feb-11 13:30N 30°08' W 093°20'1 1.0
2018-Feb-11 13:00N 30°08' W 093°19'0 0.0
2018-Feb-11 12:30N 30°08' W 093°19'0 0.0
2018-Feb-11 12:00N 30°08' W 093°19'0 0.0
2018-Feb-11 11:30N 30°08' W 093°19'0 0.0
2018-Feb-11 11:00N 30°08' W 093°19'0 0.0
2018-Feb-11 10:30N 30°08' W 093°19'0 0.0
2018-Feb-11 10:00N 30°08' W 093°19'0 0.0
2018-Feb-11 09:30N 30°08' W 093°19'0 0.0
2018-Feb-11 09:00N 30°08' W 093°19'0 0.0
2018-Feb-11 08:30N 30°08' W 093°19'0 0.0
2018-Feb-11 08:00N 30°08' W 093°19'0 0.0
2018-Feb-11 07:30N 30°08' W 093°19'0 0.0
2018-Feb-11 07:00N 30°08' W 093°19'0 0.0
2018-Feb-11 06:30N 30°08' W 093°19'0 0.0
2018-Feb-11 06:00N 30°08' W 093°19'0 0.0
2018-Feb-11 05:30N 30°08' W 093°19'0 0.0
2018-Feb-11 05:00N 30°08' W 093°19'0 0.0
2018-Feb-11 04:30N 30°08' W 093°19'0 0.0
2018-Feb-11 04:00N 30°08' W 093°19'0 0.0
2018-Feb-11 03:30N 30°08' W 093°19'0 0.0
2018-Feb-11 03:00N 30°08' W 093°19'0 0.0
2018-Feb-11 02:30N 30°08' W 093°19'0 0.0
2018-Feb-11 02:00N 30°08' W 093°19'0 0.0
2018-Feb-11 01:30N 30°08' W 093°19'0 0.0
2018-Feb-11 01:00N 30°08' W 093°19'0 0.0
2018-Feb-11 00:30N 30°08' W 093°19'0 0.0
2018-Feb-11 00:00N 30°08' W 093°19'0 0.0
2018-Feb-10 23:30N 30°08' W 093°19'0 0.0
2018-Feb-10 23:00N 30°08' W 093°19'0 0.0
2018-Feb-10 22:30N 30°08' W 093°19'0 0.0
2018-Feb-10 22:00N 30°08' W 093°19'0 0.0
2018-Feb-10 21:30N 30°08' W 093°19'0 0.0
2018-Feb-10 21:00N 30°08' W 093°19'0 0.0
2018-Feb-10 20:30N 30°08' W 093°19'0 0.0
2018-Feb-10 20:00N 30°08' W 093°19'0 0.0
2018-Feb-10 19:30N 30°08' W 093°19'0 0.0
2018-Feb-10 19:00N 30°08' W 093°19'0 0.0
2018-Feb-10 18:30N 30°08' W 093°19'0 0.0
2018-Feb-10 18:00N 30°08' W 093°19'0 0.0
2018-Feb-10 17:30N 30°08' W 093°19'0 0.0
2018-Feb-10 17:00N 30°08' W 093°19'0 0.0
2018-Feb-10 16:30N 30°08' W 093°19'0 0.7
2018-Feb-10 16:00N 30°08' W 093°20'2 4.6
2018-Feb-10 15:30N 30°06' W 093°20'2 3.0
2018-Feb-10 15:00N 30°04' W 093°20'0 0.1
2018-Feb-10 14:30N 30°04' W 093°21'0 0.0
2018-Feb-10 14:00N 30°04' W 093°21'0 0.0
2018-Feb-10 13:28N 30°04' W 093°21'0 0.0
2018-Feb-10 13:00N 30°04' W 093°21'0 0.0
2018-Feb-10 12:30N 30°04' W 093°21'0 0.0
2018-Feb-10 12:00N 30°04' W 093°21'0 0.0
2018-Feb-10 11:25N 30°04' W 093°21'0 0.0
2018-Feb-10 11:00N 30°04' W 093°21'0 0.0
2018-Feb-10 10:30N 30°04' W 093°21'0 0.0
2018-Feb-10 10:00N 30°04' W 093°21'0 0.0
2018-Feb-10 09:30N 30°04' W 093°21'0 0.0
2018-Feb-10 09:00N 30°04' W 093°21'0 0.0
2018-Feb-10 08:30N 30°04' W 093°21'0 0.0
2018-Feb-10 08:00N 30°04' W 093°21'0 0.0
2018-Feb-10 07:29N 30°04' W 093°21'0 0.0
2018-Feb-10 07:00N 30°04' W 093°21'0 0.0
2018-Feb-10 06:29N 30°04' W 093°21'0 0.0
2018-Feb-10 06:00N 30°04' W 093°21'0 0.0
2018-Feb-10 05:30N 30°04' W 093°21'0 0.0
2018-Feb-10 05:00N 30°04' W 093°21'0 0.3
2018-Feb-10 04:30N 30°04' W 093°21'1 1.4
2018-Feb-10 04:00N 30°04' W 093°21'0 0.0
2018-Feb-10 03:30N 30°04' W 093°21'0 0.0
2018-Feb-10 03:00N 30°04' W 093°21'0 0.0
2018-Feb-10 02:30N 30°04' W 093°21'0 0.0
2018-Feb-10 02:00N 30°04' W 093°21'1 1.7
2018-Feb-10 01:30N 30°04' W 093°21'0 0.0
2018-Feb-10 01:00N 30°04' W 093°21'  

Dump ship's entire track history